Time;durP1;ratioP1;P1;durP2;ratioP2;P2;SDS_P1;SDS_P2;PMS_P1;PMS_P2;Temp;Humidity;BMP_temperature;BMP_pressure;BME280_temperature;BME280_humidity;BME280_pressure;Samples;Min_cycle;Max_cycle;Signal;HPM_P1;HPM_P2
2023/06/01 15:03:38;;;;;;;48.20;6.50;;;;;;;;;;5011959;28;20427;-55
2023/06/01 15:06:03;;;;;;;42.53;6.27;;;;;;;;;;5010811;28;20049;-54
2023/06/01 15:08:29;;;;;;;48.33;6.75;;;;;;;;;;4999220;28;20276;-56
2023/06/01 15:10:54;;;;;;;44.92;6.32;;;;;;;;;;4999628;28;20038;-54
2023/06/01 15:13:19;;;;;;;62.10;8.07;;;;;;;;;;4998264;28;20017;-54
2023/06/01 15:15:45;;;;;;;51.40;6.93;;;;;;;;;;4999766;28;20056;-54
2023/06/01 15:18:10;;;;;;;63.80;8.20;;;;;;;;;;4999175;28;20300;-56
2023/06/01 15:20:35;;;;;;;59.28;7.32;;;;;;;;;;4998704;28;20277;-56
2023/06/01 15:23:00;;;;;;;47.33;6.10;;;;;;;;;;4998359;28;20017;-56
2023/06/01 15:25:26;;;;;;;45.57;6.20;;;;;;;;;;4997931;28;20053;-54
2023/06/01 15:27:51;;;;;;;40.90;5.83;;;;;;;;;;5000739;28;20037;-52
2023/06/01 15:30:16;;;;;;;79.47;9.77;;;;;;;;;;4998181;28;20299;-55
2023/06/01 15:32:42;;;;;;;48.92;6.80;;;;;;;;;;4998377;28;20356;-54
2023/06/01 15:35:08;;;;;;;41.87;5.73;;;;;;;;;;4999710;28;20018;-51
2023/06/01 15:37:33;;;;;;;48.47;6.38;;;;;;;;;;5002112;28;20445;-53
2023/06/01 15:39:58;;;;;;;40.58;6.13;;;;;;;;;;5004121;28;20189;-52
2023/06/01 15:42:24;;;;;;;78.27;9.87;;;;;;;;;;4996735;28;20041;-53
2023/06/01 15:44:49;;;;;;;40.75;6.00;;;;;;;;;;5000551;28;20269;-55
2023/06/01 15:47:14;;;;;;;65.03;8.60;;;;;;;;;;4999954;28;20084;-55
2023/06/01 15:49:40;;;;;;;47.47;6.50;;;;;;;;;;4999273;28;20222;-54
2023/06/01 15:52:05;;;;;;;51.60;6.38;;;;;;;;;;4998263;28;20273;-55
2023/06/01 15:54:34;;;;;;;40.78;5.80;;;;;;;;;;5000810;28;20594;-53
2023/06/01 15:57:00;;;;;;;47.85;6.20;;;;;;;;;;5000122;28;20062;-54
2023/06/01 15:59:25;;;;;;;74.32;8.90;;;;;;;;;;4997413;28;20041;-51
2023/06/01 16:01:51;;;;;;;66.35;7.90;;;;;;;;;;5001542;28;20034;-54
2023/06/01 16:04:16;;;;;;;73.95;9.23;;;;;;;;;;4998234;28;20014;-53
2023/06/01 16:06:41;;;;;;;49.67;6.53;;;;;;;;;;4997551;28;20093;-53
2023/06/01 16:09:07;;;;;;;56.65;7.15;;;;;;;;;;5030511;28;20104;-56
2023/06/01 16:11:32;;;;;;;42.00;6.10;;;;;;;;;;4998557;28;20046;-55
2023/06/01 16:13:57;;;;;;;42.60;5.95;;;;;;;;;;4990529;28;20343;-53
2023/06/01 16:16:24;;;;;;;83.37;10.10;;;;;;;;;;4984507;28;20034;-54
2023/06/01 16:18:49;;;;;;;54.13;6.72;;;;;;;;;;4992906;28;20060;-55
2023/06/01 16:21:15;;;;;;;72.32;8.82;;;;;;;;;;4984191;28;20153;-53
2023/06/01 16:23:40;;;;;;;46.40;5.95;;;;;;;;;;4984698;28;20025;-55
2023/06/01 16:26:06;;;;;;;49.42;6.45;;;;;;;;;;4986191;28;20027;-56
2023/06/01 16:28:31;;;;;;;57.20;7.47;;;;;;;;;;4984399;28;20960;-54
2023/06/01 16:30:56;;;;;;;39.03;5.60;;;;;;;;;;4986991;28;20026;-54
2023/06/01 16:33:21;;;;;;;80.57;9.27;;;;;;;;;;4982791;28;20036;-53
2023/06/01 16:35:47;;;;;;;56.57;8.00;;;;;;;;;;4984575;28;20045;-53
2023/06/01 16:38:12;;;;;;;50.40;6.73;;;;;;;;;;4983778;28;20265;-53
2023/06/01 16:40:37;;;;;;;52.72;7.10;;;;;;;;;;4984739;28;20138;-54
2023/06/01 16:43:02;;;;;;;45.50;6.63;;;;;;;;;;4986442;28;20026;-55
2023/06/01 16:45:28;;;;;;;81.37;9.87;;;;;;;;;;4982505;28;20745;-56
2023/06/01 16:47:53;;;;;;;44.30;6.13;;;;;;;;;;4985645;28;20260;-56
2023/06/01 16:50:18;;;;;;;71.70;9.13;;;;;;;;;;4982478;28;20057;-55
2023/06/01 16:52:43;;;;;;;45.67;6.23;;;;;;;;;;4984353;28;20278;-56
2023/06/01 16:55:10;;;;;;;61.17;7.13;;;;;;;;;;4984413;28;20350;-56
2023/06/01 16:57:36;;;;;;;58.85;6.38;;;;;;;;;;4983606;28;20285;-56
2023/06/01 17:00:01;;;;;;;57.08;6.60;;;;;;;;;;4984266;28;20188;-54
2023/06/01 17:02:27;;;;;;;99.47;9.95;;;;;;;;;;4980086;28;20034;-55
2023/06/01 17:04:52;;;;;;;41.75;5.40;;;;;;;;;;4985069;28;20532;-54
2023/06/01 17:07:18;;;;;;;91.70;9.90;;;;;;;;;;4983999;28;20118;-55
2023/06/01 17:09:43;;;;;;;68.47;7.60;;;;;;;;;;4985314;28;20034;-56
2023/06/01 17:12:14;;;;;;;70.40;7.43;;;;;;;;;;4983177;28;20135;-53
2023/06/01 17:14:40;;;;;;;60.47;6.90;;;;;;;;;;4986949;28;20257;-55
2023/06/01 17:17:05;;;;;;;52.95;6.18;;;;;;;;;;4985849;28;20064;-57
2023/06/01 17:19:30;;;;;;;94.68;9.45;;;;;;;;;;4983012;28;20060;-54
2023/06/01 17:21:55;;;;;;;71.80;7.37;;;;;;;;;;4985300;28;20117;-57
2023/06/01 17:24:21;;;;;;;104.97;11.20;;;;;;;;;;4984052;28;20026;-56
2023/06/01 17:26:46;;;;;;;67.93;6.83;;;;;;;;;;4983825;28;20193;-55
2023/06/01 17:29:11;;;;;;;66.80;7.00;;;;;;;;;;4985803;28;20327;-56
2023/06/01 17:31:37;;;;;;;62.63;6.88;;;;;;;;;;4982019;28;20539;-56
2023/06/01 17:34:02;;;;;;;57.83;6.60;;;;;;;;;;4984306;28;20026;-57
2023/06/01 17:36:27;;;;;;;91.97;8.33;;;;;;;;;;4997185;28;20038;-57
2023/06/01 17:38:52;;;;;;;61.23;7.00;;;;;;;;;;5003866;28;20029;-56
2023/06/01 17:41:18;;;;;;;75.70;8.00;;;;;;;;;;5002958;28;20390;-57
2023/06/01 17:43:43;;;;;;;63.38;6.63;;;;;;;;;;5004337;28;20939;-54
2023/06/01 17:46:08;;;;;;;62.87;6.70;;;;;;;;;;5003496;28;20523;-57
2023/06/01 17:48:33;;;;;;;76.07;7.73;;;;;;;;;;5001406;28;20273;-55
2023/06/01 17:50:59;;;;;;;59.47;6.70;;;;;;;;;;5004528;28;20117;-54
2023/06/01 17:53:24;;;;;;;103.43;9.98;;;;;;;;;;5003144;28;20021;-54
2023/06/01 17:55:49;;;;;;;64.07;6.75;;;;;;;;;;5004443;28;20061;-55
2023/06/01 17:58:15;;;;;;;66.23;6.87;;;;;;;;;;5004013;28;20086;-56
2023/06/01 18:00:40;;;;;;;69.33;6.83;;;;;;;;;;5001425;28;20319;-55
2023/06/01 18:03:05;;;;;;;61.83;6.55;;;;;;;;;;5001866;28;20752;-53
2023/06/01 18:05:30;;;;;;;112.72;11.15;;;;;;;;;;5001144;28;20080;-57
2023/06/01 18:07:56;;;;;;;60.13;6.65;;;;;;;;;;5005022;28;20048;-56
2023/06/01 18:10:22;;;;;;;79.47;7.88;;;;;;;;;;5001882;28;20132;-55
2023/06/01 18:12:47;;;;;;;68.03;7.22;;;;;;;;;;5003925;28;20029;-58
2023/06/01 18:15:12;;;;;;;62.33;6.80;;;;;;;;;;5003267;28;20040;-58
2023/06/01 18:17:37;;;;;;;65.45;6.68;;;;;;;;;;5002493;28;20048;-58
2023/06/01 18:20:04;;;;;;;67.93;7.07;;;;;;;;;;5001641;28;20022;-58
2023/06/01 18:22:29;;;;;;;102.53;10.27;;;;;;;;;;5000865;28;20289;-54
2023/06/01 18:24:55;;;;;;;58.67;6.30;;;;;;;;;;5010247;28;20571;-54
2023/06/01 18:27:20;;;;;;;69.30;7.50;;;;;;;;;;5002909;28;20506;-54
2023/06/01 18:29:46;;;;;;;57.87;6.70;;;;;;;;;;5002401;28;20712;-55
2023/06/01 18:32:11;;;;;;;75.35;8.50;;;;;;;;;;4999418;28;20446;-55
2023/06/01 18:34:36;;;;;;;96.50;9.60;;;;;;;;;;5003926;28;20025;-57
2023/06/01 18:37:02;;;;;;;62.35;7.93;;;;;;;;;;5003439;28;20343;-55
2023/06/01 18:39:27;;;;;;;128.52;13.38;;;;;;;;;;5003867;28;20029;-55
2023/06/01 18:41:52;;;;;;;87.50;10.00;;;;;;;;;;5001858;28;20034;-55
2023/06/01 18:44:17;;;;;;;62.88;8.63;;;;;;;;;;5005321;28;20025;-56
2023/06/01 18:46:44;;;;;;;71.15;8.75;;;;;;;;;;5001326;28;20033;-57
2023/06/01 18:49:09;;;;;;;63.80;7.78;;;;;;;;;;5005057;28;20033;-58
2023/06/01 18:51:35;;;;;;;113.07;11.93;;;;;;;;;;4999828;28;20868;-56
2023/06/01 18:54:01;;;;;;;75.85;8.07;;;;;;;;;;5002219;28;20075;-56
2023/06/01 18:56:26;;;;;;;104.15;11.15;;;;;;;;;;5002376;28;20502;-54
2023/06/01 18:58:51;;;;;;;81.82;7.95;;;;;;;;;;5002819;28;20029;-54
2023/06/01 19:01:17;;;;;;;53.03;6.15;;;;;;;;;;5001624;28;20026;-56
2023/06/01 19:03:42;;;;;;;64.35;7.20;;;;;;;;;;5002962;28;20026;-54
2023/06/01 19:06:08;;;;;;;69.07;7.38;;;;;;;;;;5001517;28;20069;-54
2023/06/01 19:08:34;;;;;;;105.13;10.32;;;;;;;;;;5001356;28;20569;-55
2023/06/01 19:10:59;;;;;;;72.00;6.97;;;;;;;;;;5002957;28;20028;-57
2023/06/01 19:13:45;;;;;;;107.32;10.57;;;;;;;;;;5000007;28;20104;-54
2023/06/01 19:16:12;;;;;;;55.95;6.40;;;;;;;;;;4999685;28;20498;-58
2023/06/01 19:18:37;;;;;;;82.47;8.82;;;;;;;;;;5003625;28;20029;-57
2023/06/01 19:21:09;;;;;;;48.72;5.63;;;;;;;;;;5002997;28;20037;-55
2023/06/01 19:23:35;;;;;;;107.85;9.88;;;;;;;;;;4999859;28;20037;-56
2023/06/01 19:26:04;;;;;;;64.35;7.20;;;;;;;;;;5003309;28;20761;-57
2023/06/01 19:28:30;;;;;;;114.00;10.88;;;;;;;;;;5000682;28;20030;-57
2023/06/01 19:30:55;;;;;;;79.30;7.88;;;;;;;;;;5003581;28;20041;-58
2023/06/01 19:33:20;;;;;;;71.53;7.40;;;;;;;;;;5004855;28;20029;-56
2023/06/01 19:35:45;;;;;;;72.00;7.57;;;;;;;;;;5001983;28;20650;-55
2023/06/01 19:38:11;;;;;;;67.80;7.37;;;;;;;;;;5003833;28;20148;-57
2023/06/01 19:40:37;;;;;;;126.55;11.55;;;;;;;;;;5000333;28;20689;-54
2023/06/01 19:43:03;;;;;;;73.15;7.47;;;;;;;;;;5001483;28;20140;-55
2023/06/01 19:45:29;;;;;;;111.07;10.13;;;;;;;;;;5002050;28;20049;-56
2023/06/01 19:47:55;;;;;;;76.97;7.50;;;;;;;;;;5002233;28;20022;-56
2023/06/01 19:50:29;;;;;;;68.03;7.20;;;;;;;;;;5006199;28;20029;-52
2023/06/01 19:52:54;;;;;;;46.53;5.50;;;;;;;;;;5003579;28;20030;-53
2023/06/01 19:55:20;;;;;;;62.63;6.80;;;;;;;;;;5005834;28;20087;-56
2023/06/01 19:57:45;;;;;;;47.53;5.53;;;;;;;;;;5004357;28;20263;-54
2023/06/01 20:00:11;;;;;;;49.05;5.70;;;;;;;;;;5003547;28;20052;-57
2023/06/01 20:02:49;;;;;;;67.47;7.30;;;;;;;;;;5001924;28;20022;-54
2023/06/01 20:05:18;;;;;;;50.75;5.85;;;;;;;;;;5005053;28;20029;-56
2023/06/01 20:07:44;;;;;;;81.00;7.90;;;;;;;;;;5002538;28;20122;-53
2023/06/01 20:10:18;;;;;;;73.43;7.32;;;;;;;;;;5004325;28;20018;-57
2023/06/01 20:12:44;;;;;;;78.60;8.05;;;;;;;;;;5003985;28;20327;-57
2023/06/01 20:15:09;;;;;;;75.15;7.57;;;;;;;;;;5012803;28;20037;-55
2023/06/01 20:17:34;;;;;;;106.05;10.02;;;;;;;;;;5002871;28;20032;-58
2023/06/01 20:20:00;;;;;;;79.18;7.65;;;;;;;;;;5005760;28;20072;-56
2023/06/01 20:22:26;;;;;;;65.85;7.38;;;;;;;;;;5000954;28;20087;-57
2023/06/01 20:24:52;;;;;;;68.40;7.22;;;;;;;;;;5002662;28;20022;-54
2023/06/01 20:27:17;;;;;;;76.80;7.40;;;;;;;;;;5004647;28;20033;-56
2023/06/01 20:29:42;;;;;;;111.60;10.85;;;;;;;;;;5003676;28;20256;-56
2023/06/01 20:32:07;;;;;;;91.33;8.87;;;;;;;;;;5002969;28;20520;-57
2023/06/01 20:34:33;;;;;;;98.80;9.73;;;;;;;;;;5003821;28;20338;-56
2023/06/01 20:36:58;;;;;;;66.47;7.32;;;;;;;;;;5004282;28;20273;-56
2023/06/01 20:39:24;;;;;;;88.30;8.93;;;;;;;;;;5005417;28;20026;-56
2023/06/01 20:41:51;;;;;;;82.82;8.13;;;;;;;;;;5001647;28;20033;-58
2023/06/01 20:44:17;;;;;;;66.25;7.13;;;;;;;;;;5004807;28;20018;-57
2023/06/01 20:46:43;;;;;;;116.88;9.82;;;;;;;;;;5004433;28;20052;-56
2023/06/01 20:49:08;;;;;;;57.70;6.95;;;;;;;;;;5004964;28;20901;-57
2023/06/01 20:51:35;;;;;;;116.13;11.05;;;;;;;;;;5002730;28;20079;-55
2023/06/01 20:54:03;;;;;;;58.92;6.82;;;;;;;;;;5006505;28;20732;-56
2023/06/01 20:56:30;;;;;;;60.30;7.15;;;;;;;;;;5003334;28;20049;-56
2023/06/01 20:59:00;;;;;;;54.33;6.47;;;;;;;;;;5004482;28;20793;-53
2023/06/01 21:01:26;;;;;;;50.88;5.93;;;;;;;;;;5004051;28;20029;-59
2023/06/01 21:03:56;;;;;;;64.82;7.05;;;;;;;;;;5004624;28;20672;-54
2023/06/01 21:06:22;;;;;;;65.13;7.00;;;;;;;;;;5002900;28;20053;-58
2023/06/01 21:08:50;;;;;;;68.43;8.63;;;;;;;;;;5010865;28;20056;-56
2023/06/01 21:11:16;;;;;;;74.28;8.63;;;;;;;;;;5003467;28;20026;-57
2023/06/01 21:13:41;;;;;;;124.43;11.95;;;;;;;;;;5002680;28;20026;-57
